createdAt,value
2022-12-27T00:00:04.501Z,99584.66
2022-12-27T00:02:31.232Z,99583.75
2022-12-27T00:04:58.138Z,99583.69
2022-12-27T00:07:24.817Z,99584.56
2022-12-27T00:09:51.538Z,99579.31
2022-12-27T00:12:18.266Z,99574.94
2022-12-27T00:14:45.311Z,99572.31
2022-12-27T00:17:11.979Z,99567.09
2022-12-27T00:19:38.664Z,99571.47
2022-12-27T00:22:05.438Z,99564.53
2022-12-27T00:24:32.366Z,99563.63
2022-12-27T00:26:59.142Z,99564.47
2022-12-27T00:29:25.923Z,99563.63
2022-12-27T00:31:52.736Z,99563.63
2022-12-27T00:34:19.468Z,99559.25
2022-12-27T00:36:46.137Z,99557.44
2022-12-27T00:39:12.849Z,99551.34
2022-12-27T00:41:39.563Z,99546.13
2022-12-27T00:44:06.278Z,99536.56
2022-12-27T00:46:32.956Z,99540.88
2022-12-27T00:48:59.619Z,99538.28
2022-12-27T00:51:26.704Z,99525.25
2022-12-27T00:53:53.926Z,99528.78
2022-12-27T00:56:26.692Z,99526.16
2022-12-27T00:58:58.416Z,99518.28
2022-12-27T01:01:26.801Z,99517.41
2022-12-27T01:03:56.937Z,99509.56
2022-12-27T01:06:29.820Z,99508.69
2022-12-27T01:08:57.117Z,99507.84
2022-12-27T01:11:24.529Z,99518.25
2022-12-27T01:13:51.430Z,99518.25
2022-12-27T01:16:21.562Z,99508.75
2022-12-27T01:18:48.964Z,99507.97
2022-12-27T01:21:23.843Z,99494.03
2022-12-27T01:23:52.787Z,99496.72
2022-12-27T01:26:24.257Z,99496.66
2022-12-27T01:28:52.223Z,99496.78
2022-12-27T01:31:28.319Z,99494.25
2022-12-27T01:34:00.290Z,99494.28
2022-12-27T01:36:29.072Z,99486.47
2022-12-27T01:38:55.983Z,99489.94
2022-12-27T01:41:53.807Z,99490.81
2022-12-27T01:44:56.921Z,99478.66
2022-12-27T01:47:37.754Z,99480.41
2022-12-27T01:50:14.778Z,99477.78
2022-12-27T01:53:01.616Z,99477.84
2022-12-27T01:55:48.814Z,99473.47
2022-12-27T01:58:15.409Z,99469.16
2022-12-27T02:00:45.022Z,99460.47
2022-12-27T02:03:17.557Z,99466.66
2022-12-27T02:05:44.358Z,99463.25
2022-12-27T02:08:24.027Z,99458.00
2022-12-27T02:10:51.384Z,99464.09
2022-12-27T02:13:19.267Z,99460.56
2022-12-27T02:15:46.072Z,99465.75
2022-12-27T02:18:13.197Z,99456.13
2022-12-27T02:21:11.157Z,99457.00
2022-12-27T02:24:11.566Z,99455.22
2022-12-27T02:26:53.923Z,99446.47
2022-12-27T02:29:38.972Z,99454.38
2022-12-27T02:32:08.348Z,99446.59
2022-12-27T02:34:57.201Z,99444.03
2022-12-27T02:37:28.099Z,99447.44
2022-12-27T02:40:17.551Z,99443.06
2022-12-27T02:43:05.612Z,99455.28
2022-12-27T02:45:56.978Z,99445.66
2022-12-27T02:48:42.174Z,99450.84
2022-12-27T02:51:48.047Z,99446.47
2022-12-27T02:54:42.450Z,99441.28
2022-12-27T02:57:26.277Z,99431.72
2022-12-27T03:00:34.713Z,99426.59
2022-12-27T03:03:29.782Z,99428.38
2022-12-27T03:06:42.198Z,99424.03
2022-12-27T03:09:59.093Z,99433.63
2022-12-27T03:13:01.702Z,99424.09
2022-12-27T03:15:55.759Z,99431.06
2022-12-27T03:18:37.567Z,99428.38
2022-12-27T03:21:25.872Z,99422.28
2022-12-27T03:24:15.122Z,99424.78
2022-12-27T03:26:47.137Z,99425.56
2022-12-27T03:29:35.948Z,99427.28
2022-12-27T03:32:27.032Z,99448.97
2022-12-27T03:34:59.767Z,99444.53
2022-12-27T03:37:50.919Z,99445.38
2022-12-27T03:40:20.417Z,99437.41
2022-12-27T03:43:11.658Z,99453.09
2022-12-27T03:46:09.050Z,99440.88
2022-12-27T03:48:45.369Z,99442.59
2022-12-27T03:51:14.971Z,99449.59
2022-12-27T03:53:45.085Z,99452.19
2022-12-27T03:56:12.129Z,99452.19
2022-12-27T03:58:38.775Z,99456.50
2022-12-27T04:01:05.865Z,99450.38
2022-12-27T04:03:32.687Z,99453.84
2022-12-27T04:05:59.442Z,99444.28
2022-12-27T04:08:44.605Z,99451.16
2022-12-27T04:11:30.135Z,99447.69
2022-12-27T04:14:15.230Z,99455.47
2022-12-27T04:17:00.379Z,99442.34
2022-12-27T04:19:45.746Z,99442.41
2022-12-27T04:22:30.832Z,99458.03
2022-12-27T04:25:16.442Z,99455.41
2022-12-27T04:28:01.596Z,99447.53
2022-12-27T04:30:46.904Z,99444.00
2022-12-27T04:33:32.478Z,99444.84
2022-12-27T04:36:04.297Z,99448.25
2022-12-27T04:38:32.805Z,99443.88
2022-12-27T04:41:18.039Z,99452.53
2022-12-27T04:44:03.513Z,99453.34
2022-12-27T04:46:48.914Z,99446.34
2022-12-27T04:49:40.545Z,99448.09
2022-12-27T04:52:37.119Z,99457.66
2022-12-27T04:55:26.198Z,99455.91
2022-12-27T04:57:53.395Z,99456.72
2022-12-27T05:00:40.753Z,99446.28
2022-12-27T05:03:10.710Z,99451.38
2022-12-27T05:05:38.984Z,99462.69
2022-12-27T05:08:25.597Z,99461.78
2022-12-27T05:11:11.331Z,99462.59
2022-12-27T05:13:59.428Z,99461.66
2022-12-27T05:16:35.637Z,99461.66
2022-12-27T05:19:02.628Z,99459.91
2022-12-27T05:21:29.263Z,99456.41
2022-12-27T05:24:14.693Z,99457.25
2022-12-27T05:26:41.379Z,99469.44
2022-12-27T05:29:08.856Z,99465.06
2022-12-27T05:31:35.753Z,99457.16
2022-12-27T05:34:02.486Z,99466.69
2022-12-27T05:36:29.222Z,99456.16
2022-12-27T05:38:55.957Z,99458.78
2022-12-27T05:41:22.706Z,99453.47
2022-12-27T05:43:50.110Z,99456.03
2022-12-27T05:46:20.195Z,99457.72
2022-12-27T05:48:48.222Z,99459.44
2022-12-27T05:51:20.272Z,99457.66
2022-12-27T05:53:48.001Z,99462.75
2022-12-27T05:56:16.932Z,99458.38
2022-12-27T05:58:43.685Z,99453.97
2022-12-27T06:01:12.586Z,99457.41
2022-12-27T06:03:39.737Z,99461.78
2022-12-27T06:06:08.170Z,99453.00
2022-12-27T06:08:35.633Z,99459.94
2022-12-27T06:11:09.374Z,99465.13
2022-12-27T06:13:37.873Z,99466.88
2022-12-27T06:16:06.741Z,99463.31
2022-12-27T06:18:35.679Z,99476.41
2022-12-27T06:21:08.310Z,99461.63
2022-12-27T06:23:37.068Z,99472.91
2022-12-27T06:26:08.359Z,99483.34
2022-12-27T06:28:35.479Z,99481.59
2022-12-27T06:31:03.031Z,99489.38
2022-12-27T06:33:30.150Z,99480.69
2022-12-27T06:35:57.410Z,99478.91
2022-12-27T06:38:24.169Z,99477.16
2022-12-27T06:40:50.825Z,99486.75
2022-12-27T06:43:18.002Z,99489.38
2022-12-27T06:45:44.683Z,99496.31
2022-12-27T06:48:11.430Z,99492.00
2022-12-27T06:50:38.133Z,99491.91
2022-12-27T06:53:04.799Z,99498.88
2022-12-27T06:55:31.472Z,99500.56
2022-12-27T06:57:58.139Z,99500.56
2022-12-27T07:00:24.797Z,99502.28
2022-12-27T07:02:51.556Z,99502.28
2022-12-27T07:05:18.306Z,99504.94
2022-12-27T07:07:44.981Z,99508.44
2022-12-27T07:10:11.715Z,99530.22
2022-12-27T07:12:38.750Z,99514.50
2022-12-27T07:15:06.900Z,99515.38
2022-12-27T07:17:37.321Z,99512.75
2022-12-27T07:20:05.695Z,99524.13
2022-12-27T07:22:32.687Z,99530.22
2022-12-27T07:24:59.556Z,99528.47
2022-12-27T07:27:26.256Z,99533.63
2022-12-27T07:29:53.024Z,99538.00
2022-12-27T07:32:19.674Z,99553.66
2022-12-27T07:34:46.335Z,99546.75
2022-12-27T07:37:13.284Z,99552.84
2022-12-27T07:39:40.124Z,99551.97
2022-12-27T07:42:08.629Z,99562.44
2022-12-27T07:44:35.597Z,99551.13
2022-12-27T07:47:02.441Z,99552.03
2022-12-27T07:49:29.214Z,99554.66
2022-12-27T07:51:56.124Z,99550.31
2022-12-27T07:54:23.025Z,99553.78
2022-12-27T07:56:49.727Z,99548.56
2022-12-27T07:59:16.463Z,99554.66
2022-12-27T08:02:02.068Z,99551.25
2022-12-27T08:04:28.965Z,99559.13
2022-12-27T08:07:02.277Z,99560.00
2022-12-27T08:09:32.374Z,99544.28
2022-12-27T08:11:59.060Z,99558.25
2022-12-27T08:14:25.774Z,99552.16
2022-12-27T08:16:56.346Z,99554.72
2022-12-27T08:19:23.089Z,99546.00
2022-12-27T08:21:49.762Z,99546.84
2022-12-27T08:24:16.421Z,99552.94
2022-12-27T08:26:43.140Z,99554.66
2022-12-27T08:29:09.811Z,99553.81
2022-12-27T08:31:36.486Z,99555.56
2022-12-27T08:34:03.459Z,99559.88
2022-12-27T08:36:54.780Z,99554.59
2022-12-27T08:39:16.843Z,99563.25
2022-12-27T08:41:43.569Z,99556.25
2022-12-27T08:44:10.787Z,99553.53
2022-12-27T08:46:37.652Z,99554.44
2022-12-27T08:49:04.814Z,99552.66
2022-12-27T08:51:38.722Z,99560.47
2022-12-27T08:54:07.764Z,99562.25
2022-12-27T08:56:34.495Z,99562.19
2022-12-27T08:59:01.296Z,99558.69
2022-12-27T09:01:28.599Z,99559.53
2022-12-27T09:03:55.471Z,99564.78
2022-12-27T09:06:24.582Z,99567.41
2022-12-27T09:08:52.781Z,99566.50
2022-12-27T09:11:25.475Z,99571.72
2022-12-27T09:13:52.517Z,99561.25
2022-12-27T09:16:22.687Z,99556.88
2022-12-27T09:18:51.370Z,99545.53
2022-12-27T09:21:19.595Z,99557.75
2022-12-27T09:23:47.237Z,99555.09
2022-12-27T09:26:19.457Z,99558.56
2022-12-27T09:28:47.184Z,99564.72
2022-12-27T09:31:15.368Z,99560.38
2022-12-27T09:33:43.053Z,99574.34
2022-12-27T09:36:30.493Z,99564.72
2022-12-27T09:38:58.812Z,99563.88
2022-12-27T09:44:36.519Z,99565.66
2022-12-27T09:47:20.582Z,99568.25
2022-12-27T09:49:59.209Z,99575.25
2022-12-27T09:52:52.657Z,99568.31
2022-12-27T09:55:34.938Z,99570.16
2022-12-27T09:58:24.180Z,99571.94
2022-12-27T10:00:51.547Z,99566.63
2022-12-27T10:03:24.168Z,99573.63
2022-12-27T10:06:00.361Z,99577.09
2022-12-27T10:08:50.467Z,99571.00
2022-12-27T10:11:40.159Z,99571.00
2022-12-27T10:14:23.931Z,99564.94
2022-12-27T10:17:13.090Z,99569.31
2022-12-27T10:20:14.031Z,99584.19
2022-12-27T10:23:01.393Z,99571.97
2022-12-27T10:25:31.570Z,99578.94
2022-12-27T10:28:10.509Z,99582.34
2022-12-27T10:30:37.231Z,99568.38
2022-12-27T10:33:03.915Z,99577.91
2022-12-27T10:35:31.289Z,99571.75
2022-12-27T10:38:00.183Z,99577.84
2022-12-27T10:40:40.169Z,99581.28
2022-12-27T10:43:18.271Z,99573.47
2022-12-27T10:45:45.181Z,99571.78
2022-12-27T10:48:36.417Z,99570.03
2022-12-27T10:51:14.505Z,99561.34
2022-12-27T10:53:46.947Z,99564.84
2022-12-27T10:56:16.920Z,99564.03
2022-12-27T10:58:45.110Z,99578.00
2022-12-27T11:01:18.257Z,99573.63
2022-12-27T11:03:45.243Z,99567.47
2022-12-27T11:06:26.268Z,99561.34
2022-12-27T11:08:54.393Z,99571.78
2022-12-27T11:11:27.026Z,99566.50
2022-12-27T11:14:10.566Z,99571.66
2022-12-27T11:16:40.131Z,99569.88
2022-12-27T11:19:07.019Z,99568.91
2022-12-27T11:21:39.204Z,99565.38
2022-12-27T11:24:06.215Z,99571.44
2022-12-27T11:26:53.656Z,99574.88
2022-12-27T11:29:23.652Z,99581.81
2022-12-27T11:31:52.236Z,99580.88
2022-12-27T11:34:27.536Z,99586.91
2022-12-27T11:37:02.617Z,99582.50
2022-12-27T11:39:46.656Z,99574.63
2022-12-27T11:42:38.564Z,99588.53
2022-12-27T11:45:14.172Z,99586.69
2022-12-27T11:48:07.580Z,99586.69
2022-12-27T11:50:43.953Z,99581.34
2022-12-27T11:53:28.651Z,99590.94
2022-12-27T11:55:57.899Z,99584.84
2022-12-27T11:58:52.530Z,99586.59
2022-12-27T12:01:47.335Z,99591.78
2022-12-27T12:04:44.084Z,99602.28
2022-12-27T12:07:53.700Z,99604.91
2022-12-27T12:10:45.908Z,99600.56
2022-12-27T12:13:24.325Z,99610.22
2022-12-27T12:15:56.674Z,99598.81
2022-12-27T12:19:01.665Z,99612.84
2022-12-27T12:21:58.576Z,99612.84
2022-12-27T12:24:43.642Z,99610.28
2022-12-27T12:27:35.241Z,99619.91
2022-12-27T12:30:27.328Z,99631.31
2022-12-27T12:33:36.565Z,99634.03
2022-12-27T12:36:30.810Z,99631.53
2022-12-27T12:39:03.520Z,99643.00
2022-12-27T12:41:59.473Z,99639.72
2022-12-27T12:44:54.100Z,99653.94
2022-12-27T12:47:50.971Z,99658.50
2022-12-27T12:50:46.815Z,99661.31
2022-12-27T12:53:45.915Z,99657.03
2022-12-27T12:56:59.185Z,99657.91
2022-12-27T12:59:47.050Z,99658.75
2022-12-27T13:02:35.285Z,99669.16
2022-12-27T13:05:50.115Z,99670.88
2022-12-27T13:08:44.061Z,99679.59
2022-12-27T13:11:19.828Z,99684.81
2022-12-27T13:14:18.046Z,99679.53
2022-12-27T13:17:02.272Z,99676.88
2022-12-27T13:19:54.169Z,99684.69
2022-12-27T13:22:45.969Z,99682.06
2022-12-27T13:25:28.395Z,99690.72
2022-12-27T13:28:32.862Z,99688.09
2022-12-27T13:31:23.268Z,99701.22
2022-12-27T13:33:55.637Z,99695.94
2022-12-27T13:36:29.647Z,99698.53
2022-12-27T13:39:15.006Z,99709.00
2022-12-27T13:41:52.903Z,99714.25
2022-12-27T13:44:31.536Z,99728.19
2022-12-27T13:47:01.309Z,99723.78
2022-12-27T13:49:37.081Z,99730.78
2022-12-27T13:52:39.982Z,99733.41
2022-12-27T13:55:31.652Z,99737.75
2022-12-27T13:58:32.448Z,99732.47
2022-12-27T14:01:10.817Z,99731.66
2022-12-27T14:04:08.820Z,99740.41
2022-12-27T14:07:02.115Z,99753.53
2022-12-27T14:09:44.450Z,99752.66
2022-12-27T14:12:27.700Z,99761.44
2022-12-27T14:15:00.571Z,99764.91
2022-12-27T14:17:58.269Z,99757.06
2022-12-27T14:20:43.179Z,99758.81
2022-12-27T14:23:37.520Z,99762.34
2022-12-27T14:26:55.263Z,99784.34
2022-12-27T14:29:33.953Z,99787.06
2022-12-27T14:32:22.536Z,99788.09
2022-12-27T14:34:59.409Z,99784.69
2022-12-27T14:37:54.449Z,99790.91
2022-12-27T14:40:36.993Z,99793.66
2022-12-27T14:43:41.024Z,99791.97
2022-12-27T14:46:29.504Z,99801.66
2022-12-27T14:49:24.174Z,99807.78
2022-12-27T14:52:15.200Z,99807.88
2022-12-27T14:54:59.873Z,99806.19
2022-12-27T14:57:54.358Z,99821.97
2022-12-27T15:00:24.540Z,99830.75
2022-12-27T15:03:12.473Z,99828.16
2022-12-27T15:06:08.488Z,99831.69
2022-12-27T15:09:06.797Z,99831.69
2022-12-27T15:11:45.946Z,99831.69
2022-12-27T15:14:17.566Z,99838.72
2022-12-27T15:17:15.051Z,99846.56
2022-12-27T15:19:59.806Z,99861.44
2022-12-27T15:22:34.175Z,99853.63
2022-12-27T15:25:19.420Z,99854.47
2022-12-27T15:27:53.592Z,99866.69
2022-12-27T15:30:26.541Z,99865.88
2022-12-27T15:33:23.854Z,99870.25
2022-12-27T15:36:02.611Z,99875.50
2022-12-27T15:38:38.134Z,99875.50
2022-12-27T15:41:20.409Z,99875.50
2022-12-27T15:43:47.182Z,99907.75
2022-12-27T15:46:39.355Z,99892.06
2022-12-27T15:49:41.162Z,99902.50
2022-12-27T15:52:24.903Z,99900.81
2022-12-27T15:55:12.768Z,99897.38
2022-12-27T15:57:57.775Z,99898.22
2022-12-27T16:00:24.426Z,99906.97
2022-12-27T16:02:55.203Z,99917.44
2022-12-27T16:05:22.083Z,99927.91
2022-12-27T16:07:53.067Z,99926.16
2022-12-27T16:10:31.856Z,99926.19
2022-12-27T16:13:04.250Z,99926.19
2022-12-27T16:15:50.253Z,99945.41
2022-12-27T16:18:16.914Z,99941.06
2022-12-27T16:20:58.851Z,99956.75
2022-12-27T16:23:29.984Z,99959.38
2022-12-27T16:26:20.487Z,99962.03
2022-12-27T16:28:53.148Z,99955.94
2022-12-27T16:31:23.335Z,99962.88
2022-12-27T16:33:52.297Z,99968.97
2022-12-27T16:36:26.379Z,99976.00
2022-12-27T16:39:11.586Z,99987.31
2022-12-27T16:41:56.720Z,99993.50
2022-12-27T16:44:26.488Z,99987.41
2022-12-27T16:47:08.177Z,99990.00
2022-12-27T16:49:55.602Z,100003.09
2022-12-27T16:52:37.659Z,100005.75
2022-12-27T16:55:36.661Z,100012.72
2022-12-27T16:58:19.723Z,100017.13
2022-12-27T17:00:48.539Z,100013.69
2022-12-27T17:03:20.942Z,100025.94
2022-12-27T17:06:31.316Z,100031.22
2022-12-27T17:08:39.586Z,100031.22
2022-12-27T17:11:15.200Z,100034.72
2022-12-27T17:13:57.209Z,100040.81
2022-12-27T17:16:28.184Z,100033.84
2022-12-27T17:19:02.819Z,100048.69
2022-12-27T17:21:38.784Z,100059.16
2022-12-27T17:24:17.559Z,100052.19
2022-12-27T17:27:08.563Z,100070.50
2022-12-27T17:30:05.280Z,100079.22
2022-12-27T17:33:04.996Z,100081.00
2022-12-27T17:35:32.056Z,100076.63
2022-12-27T17:38:26.711Z,100089.75
2022-12-27T17:41:11.950Z,100097.59
2022-12-27T17:44:03.490Z,100101.94
2022-12-27T17:46:39.190Z,100115.91
2022-12-27T17:49:09.905Z,100121.13
2022-12-27T17:51:40.969Z,100123.75
2022-12-27T17:54:45.182Z,100127.25
2022-12-27T17:57:32.113Z,100116.81
2022-12-27T17:59:59.939Z,100129.03
2022-12-27T18:02:37.653Z,100133.41
2022-12-27T18:05:12.546Z,100129.06
2022-12-27T18:07:39.641Z,100147.34
2022-12-27T18:10:06.646Z,100149.97
2022-12-27T18:12:42.060Z,100158.69
2022-12-27T18:15:18.103Z,100155.22
2022-12-27T18:17:53.904Z,100152.66
2022-12-27T18:20:27.166Z,100161.38
2022-12-27T18:23:13.420Z,100164.88
2022-12-27T18:25:51.750Z,100164.06
2022-12-27T18:28:27.225Z,100175.38
2022-12-27T18:31:27.099Z,100167.53
2022-12-27T18:34:01.253Z,100174.53
2022-12-27T18:36:33.480Z,100171.03
2022-12-27T18:39:05.233Z,100179.75
2022-12-27T18:41:47.815Z,100184.13
2022-12-27T18:44:48.163Z,100192.84
2022-12-27T18:47:23.980Z,100191.97
2022-12-27T18:50:42.882Z,100184.16
2022-12-27T18:53:37.865Z,100194.63
2022-12-27T18:56:15.775Z,100197.22
2022-12-27T18:59:02.951Z,100206.81
2022-12-27T19:01:38.252Z,100208.59
2022-12-27T19:04:14.324Z,100210.38
2022-12-27T19:06:42.708Z,100213.81
2022-12-27T19:09:16.909Z,100205.16
2022-12-27T19:11:53.384Z,100216.47
2022-12-27T19:14:21.546Z,100227.78
2022-12-27T19:16:53.425Z,100222.53
2022-12-27T19:19:26.333Z,100223.44
2022-12-27T19:21:53.198Z,100230.41
2022-12-27T19:24:30.815Z,100236.50
2022-12-27T19:27:03.706Z,100235.66
2022-12-27T19:29:37.939Z,100240.88
2022-12-27T19:32:10.081Z,100243.47
2022-12-27T19:34:49.139Z,100247.88
2022-12-27T19:37:16.189Z,100251.34
2022-12-27T19:39:45.724Z,100253.97
2022-12-27T19:42:17.333Z,100265.31
2022-12-27T19:44:44.814Z,100271.38
2022-12-27T19:47:14.314Z,100267.03
2022-12-27T19:49:43.737Z,100269.66
2022-12-27T19:52:19.652Z,100269.66
2022-12-27T19:54:47.783Z,100271.41
2022-12-27T19:57:14.437Z,100275.75
2022-12-27T19:59:41.296Z,100278.41
2022-12-27T20:02:08.933Z,100284.50
2022-12-27T20:04:35.976Z,100276.66
2022-12-27T20:07:02.995Z,100284.50
2022-12-27T20:09:29.916Z,100296.66
2022-12-27T20:11:56.990Z,100301.03
2022-12-27T20:14:23.806Z,100316.72
2022-12-27T20:16:50.543Z,100307.16
2022-12-27T20:19:18.228Z,100313.22
2022-12-27T20:21:45.176Z,100309.72
2022-12-27T20:24:13.194Z,100309.72
2022-12-27T20:26:40.975Z,100308.88
2022-12-27T20:29:07.750Z,100307.16
2022-12-27T20:31:42.428Z,100312.38
2022-12-27T20:34:12.548Z,100306.25
2022-12-27T20:36:39.278Z,100321.94
2022-12-27T20:39:07.652Z,100321.97
2022-12-27T20:41:34.516Z,100321.97
2022-12-27T20:44:01.520Z,100327.19
2022-12-27T20:46:28.472Z,100332.41
2022-12-27T20:48:56.646Z,100335.03
2022-12-27T20:51:26.011Z,100338.50
2022-12-27T20:53:57.600Z,100339.38
2022-12-27T20:56:25.572Z,100346.34
2022-12-27T20:58:52.326Z,100352.41
2022-12-27T21:01:21.747Z,100357.66
2022-12-27T21:03:49.070Z,100355.06
2022-12-27T21:06:21.942Z,100368.97
2022-12-27T21:08:56.206Z,100371.56
2022-12-27T21:11:27.695Z,100373.34
2022-12-27T21:13:55.127Z,100371.56
2022-12-27T21:16:24.263Z,100365.50
2022-12-27T21:18:51.058Z,100382.03
2022-12-27T21:21:21.187Z,100373.34
2022-12-27T21:23:48.803Z,100365.50
2022-12-27T21:26:21.195Z,100369.84
2022-12-27T21:28:48.418Z,100375.06
2022-12-27T21:31:16.494Z,100382.91
2022-12-27T21:33:43.336Z,100382.06
2022-12-27T21:36:16.360Z,100375.97
2022-12-27T21:38:43.397Z,100382.06
2022-12-27T21:41:15.682Z,100383.78
2022-12-27T21:43:43.487Z,100389.88
2022-12-27T21:46:14.812Z,100398.56
2022-12-27T21:48:41.980Z,100399.47
2022-12-27T21:51:14.160Z,100400.31
2022-12-27T21:53:41.571Z,100404.69
2022-12-27T21:56:09.888Z,100396.84
2022-12-27T21:58:38.539Z,100404.69
2022-12-27T22:01:12.661Z,100404.69
2022-12-27T22:03:41.634Z,100402.06
2022-12-27T22:06:16.956Z,100407.28
2022-12-27T22:08:45.969Z,100416.84
2022-12-27T22:11:13.721Z,100422.09
2022-12-27T22:13:40.947Z,100421.22
2022-12-27T22:16:12.175Z,100422.09
2022-12-27T22:18:41.586Z,100416.88
2022-12-27T22:21:10.785Z,100428.16
2022-12-27T22:23:40.093Z,100429.06
2022-12-27T22:26:11.928Z,100429.03
2022-12-27T22:28:39.119Z,100428.19
2022-12-27T22:31:07.539Z,100436.00
2022-12-27T22:33:35.714Z,100439.47
2022-12-27T22:36:04.450Z,100436.88
2022-12-27T22:38:32.630Z,100442.97
2022-12-27T22:41:20.437Z,100430.78
2022-12-27T22:43:58.875Z,100445.59
2022-12-27T22:46:26.995Z,100448.16
2022-12-27T22:48:58.864Z,100448.16
2022-12-27T22:51:28.927Z,100450.78
2022-12-27T22:53:56.999Z,100456.84
2022-12-27T22:56:30.132Z,100457.72
2022-12-27T22:58:57.043Z,100465.56
2022-12-27T23:01:27.852Z,100460.34
2022-12-27T23:03:56.316Z,100461.22
2022-12-27T23:06:24.026Z,100462.97
2022-12-27T23:08:51.158Z,100466.41
2022-12-27T23:11:23.024Z,100480.34
2022-12-27T23:13:55.745Z,100476.84
2022-12-27T23:16:22.517Z,100489.03
2022-12-27T23:18:49.540Z,100488.16
2022-12-27T23:21:21.479Z,100495.97
2022-12-27T23:23:51.059Z,100490.78
2022-12-27T23:26:19.762Z,100494.22
2022-12-27T23:28:47.880Z,100482.06
2022-12-27T23:31:15.223Z,100476.00
2022-12-27T23:33:43.443Z,100490.75
2022-12-27T23:36:13.229Z,100489.88
2022-12-27T23:38:41.750Z,100497.72
2022-12-27T23:41:12.872Z,100504.66
2022-12-27T23:43:56.196Z,100508.09
2022-12-27T23:46:24.720Z,100504.66
2022-12-27T23:48:51.574Z,100506.38
2022-12-27T23:51:18.406Z,100512.44
2022-12-27T23:53:45.209Z,100504.63
2022-12-27T23:56:15.905Z,100510.72
2022-12-27T23:58:43.589Z,100501.16
